Terminal Aerodrome Forecast
Issued by NWS

Home | Current Version | Previous Version | Text Only | Print | Product List | Glossary On
Versions: 1 2 3 4 5 6 7 8 9 10 11 12 13 14 15 16 17 18 19 20 21 22
000
FTUS46 KPDT 190500
TAFPSC
TAF
KPSC 190537Z 1906/2006 34005KT 5SM -SHRA BR OVC013
     FM190900 VRB06KT 3SM -RA BR SCT009 OVC015
     FM191500 24003KT 5SM -SHRA BR BKN015 OVC035
     FM192100 24010KT P6SM VCSH SCT035 BKN070
     FM200300 23005KT P6SM SCT100=

USA.gov is the U.S. government's official web portal to all federal, state and local government web resources and services.